首页
METAR-TAF:

METAR-TAF

机场 :

基隆拿國際機場

基隆拿, 不列颠哥伦比亚, 加拿大

纬度: 49-58N, 经度: 119-23W, 海拔: 430米

当前天气观测

该预报发布于11分钟前的14:00 UTC
风速5节,风向
温度 9°C
湿度 66%
气压 1015 hPa
能見度: 14.5公里
少量云层高于22000英尺

METAR: CYLW 261400Z AUTO 19005KT 9SM FEW220 09/03 A2997 RMK SLP154

时间: 07:11 (14:11 UTC)

预报

该预报发布于1小时和31分钟前的12:40 UTC
预报有效从26日的 13点(UTC)到 27日的 01点(UTC)
风速6节,风向南转西南
能見度: 10公里
少量云层高于20000英尺
从 26日的 1900点(UTC)
风速10节,风向南转西南,有时为20节阵风
能見度: 10公里
散云层高于8000英尺
短暂存在
从 26日的 19点(UTC)到 27日的 01点(UTC)
能見度: 10公里
多云层高于8000英尺
附近有阵雨

TAF: CYLW 261240Z 2613/2701 20006KT P6SM FEW200 FM261900 20010G20KT P6SM SCT080 TEMPO 2619/2701 P6SM VCSH BKN080 RMK FCST BASED ON AUTO OBS. NXT FCST BY 261900Z

超过4000个机场的气象观测和天气预报(METAR&TAF报告)。

可查询的气象台以黄色和红色小点在地图上表示。

将鼠标移到小点上方,可查看气象台名称。

然后点击查看天气观测和预报。

如需切换地图:点击带黑十字的绿色按钮放大地图;点击带横线的绿色按钮缩小地图;或者点击绿色箭头查看邻近地区的地图。


METAR-TAF: